sensor_id;sensor_type;location;lat;lon;timestamp;pressure;altitude;pressure_sealevel;temperature;humidity
7660;BME280;3872;47.902;8.162;2023-05-08T00:01:15;92170.91;;;17.02;100.00
7660;BME280;3872;47.902;8.162;2023-05-08T00:03:43;92171.47;;;17.08;100.00
7660;BME280;3872;47.902;8.162;2023-05-08T00:06:09;92174.72;;;16.93;100.00
7660;BME280;3872;47.902;8.162;2023-05-08T00:08:36;92169.81;;;16.82;100.00
7660;BME280;3872;47.902;8.162;2023-05-08T00:11:04;92168.50;;;16.89;100.00
7660;BME280;3872;47.902;8.162;2023-05-08T00:13:30;92172.31;;;16.79;100.00
7660;BME280;3872;47.902;8.162;2023-05-08T00:15:56;92169.88;;;16.74;100.00
7660;BME280;3872;47.902;8.162;2023-05-08T00:18:23;92174.03;;;15.95;100.00
7660;BME280;3872;47.902;8.162;2023-05-08T00:20:52;92165.34;;;16.16;100.00
7660;BME280;3872;47.902;8.162;2023-05-08T00:23:18;92168.94;;;16.20;100.00
7660;BME280;3872;47.902;8.162;2023-05-08T00:25:46;92169.56;;;16.46;100.00
7660;BME280;3872;47.902;8.162;2023-05-08T00:28:12;92174.78;;;16.84;100.00
7660;BME280;3872;47.902;8.162;2023-05-08T00:30:39;92174.19;;;16.99;100.00
7660;BME280;3872;47.902;8.162;2023-05-08T00:33:06;92175.44;;;17.02;100.00
7660;BME280;3872;47.902;8.162;2023-05-08T00:35:33;92172.97;;;16.97;100.00
7660;BME280;3872;47.902;8.162;2023-05-08T00:38:01;92172.06;;;16.93;100.00
7660;BME280;3872;47.902;8.162;2023-05-08T00:40:27;92178.72;;;16.99;100.00
7660;BME280;3872;47.902;8.162;2023-05-08T00:42:54;92166.75;;;16.93;100.00
7660;BME280;3872;47.902;8.162;2023-05-08T00:45:20;92169.31;;;16.60;100.00
7660;BME280;3872;47.902;8.162;2023-05-08T00:47:47;92173.03;;;16.67;100.00
7660;BME280;3872;47.902;8.162;2023-05-08T00:50:14;92171.81;;;16.56;100.00
7660;BME280;3872;47.902;8.162;2023-05-08T00:52:41;92173.94;;;16.71;100.00
7660;BME280;3872;47.902;8.162;2023-05-08T00:55:09;92172.78;;;16.60;100.00
7660;BME280;3872;47.902;8.162;2023-05-08T00:57:37;92172.16;;;16.55;100.00
7660;BME280;3872;47.902;8.162;2023-05-08T01:00:05;92175.19;;;15.77;100.00
7660;BME280;3872;47.902;8.162;2023-05-08T01:02:32;92173.94;;;16.71;100.00
7660;BME280;3872;47.902;8.162;2023-05-08T01:04:59;92175.91;;;16.83;100.00
7660;BME280;3872;47.902;8.162;2023-05-08T01:07:26;92176.06;;;16.99;100.00
7660;BME280;3872;47.902;8.162;2023-05-08T01:09:52;92182.69;;;16.42;100.00
7660;BME280;3872;47.902;8.162;2023-05-08T01:12:40;92183.88;;;16.24;100.00
7660;BME280;3872;47.902;8.162;2023-05-08T01:15:12;92179.84;;;16.77;100.00
7660;BME280;3872;47.902;8.162;2023-05-08T01:17:48;92180.09;;;16.63;100.00
7660;BME280;3872;47.902;8.162;2023-05-08T01:20:25;92184.41;;;16.76;100.00
7660;BME280;3872;47.902;8.162;2023-05-08T01:26:25;92181.28;;;16.95;100.00
7660;BME280;3872;47.902;8.162;2023-05-08T01:32:05;92187.94;;;17.01;100.00
7660;BME280;3872;47.902;8.162;2023-05-08T01:34:39;92182.94;;;17.00;100.00
7660;BME280;3872;47.902;8.162;2023-05-08T01:37:14;92184.00;;;16.87;100.00
7660;BME280;3872;47.902;8.162;2023-05-08T01:39:44;92187.13;;;16.59;100.00
7660;BME280;3872;47.902;8.162;2023-05-08T01:42:18;92178.34;;;16.67;100.00
7660;BME280;3872;47.902;8.162;2023-05-08T01:44:53;92191.75;;;16.71;100.00
7660;BME280;3872;47.902;8.162;2023-05-08T01:47:26;92183.28;;;16.77;100.00
7660;BME280;3872;47.902;8.162;2023-05-08T01:49:59;92184.41;;;16.76;100.00
7660;BME280;3872;47.902;8.162;2023-05-08T01:52:34;92180.66;;;16.48;100.00
7660;BME280;3872;47.902;8.162;2023-05-08T01:55:03;92191.13;;;16.74;100.00
7660;BME280;3872;47.902;8.162;2023-05-08T01:57:33;92189.19;;;16.83;100.00
7660;BME280;3872;47.902;8.162;2023-05-08T02:00:04;92188.53;;;16.86;100.00
7660;BME280;3872;47.902;8.162;2023-05-08T02:02:36;92188.84;;;16.84;100.00
7660;BME280;3872;47.902;8.162;2023-05-08T02:05:05;92188.28;;;16.79;100.00
7660;BME280;3872;47.902;8.162;2023-05-08T02:07:33;92184.81;;;16.78;100.00
7660;BME280;3872;47.902;8.162;2023-05-08T02:10:03;92184.25;;;16.73;100.00
7660;BME280;3872;47.902;8.162;2023-05-08T02:12:30;92187.94;;;16.80;100.00
7660;BME280;3872;47.902;8.162;2023-05-08T02:15:00;92187.44;;;16.87;100.00
7660;BME280;3872;47.902;8.162;2023-05-08T02:17:28;92182.50;;;16.77;100.00
7660;BME280;3872;47.902;8.162;2023-05-08T02:19:59;92186.53;;;16.83;100.00
7660;BME280;3872;47.902;8.162;2023-05-08T02:22:29;92177.78;;;16.82;100.00
7660;BME280;3872;47.902;8.162;2023-05-08T02:24:56;92174.91;;;16.88;100.00
7660;BME280;3872;47.902;8.162;2023-05-08T02:27:25;92184.19;;;16.81;100.00
7660;BME280;3872;47.902;8.162;2023-05-08T02:29:53;92179.47;;;16.87;100.00
7660;BME280;3872;47.902;8.162;2023-05-08T02:32:22;92178.63;;;16.95;100.00
7660;BME280;3872;47.902;8.162;2023-05-08T02:34:51;92178.16;;;16.93;100.00
7660;BME280;3872;47.902;8.162;2023-05-08T02:37:20;92180.22;;;16.67;100.00
7660;BME280;3872;47.902;8.162;2023-05-08T02:39:47;92175.91;;;16.54;100.00
7660;BME280;3872;47.902;8.162;2023-05-08T02:42:16;92183.66;;;16.38;100.00
7660;BME280;3872;47.902;8.162;2023-05-08T02:44:42;92176.69;;;16.83;100.00
7660;BME280;3872;47.902;8.162;2023-05-08T02:47:14;92178.22;;;17.05;100.00
7660;BME280;3872;47.902;8.162;2023-05-08T02:49:47;92177.91;;;16.86;100.00
7660;BME280;3872;47.902;8.162;2023-05-08T02:52:18;92173.50;;;16.90;100.00
7660;BME280;3872;47.902;8.162;2023-05-08T02:54:55;92177.91;;;16.86;100.00
7660;BME280;3872;47.902;8.162;2023-05-08T02:57:30;92174.72;;;16.93;100.00
7660;BME280;3872;47.902;8.162;2023-05-08T03:00:01;92177.38;;;16.42;100.00
7660;BME280;3872;47.902;8.162;2023-05-08T03:02:34;92178.06;;;16.31;100.00
7660;BME280;3872;47.902;8.162;2023-05-08T03:05:07;92175.06;;;16.41;100.00
7660;BME280;3872;47.902;8.162;2023-05-08T03:07:38;92179.41;;;16.45;100.00
7660;BME280;3872;47.902;8.162;2023-05-08T03:10:10;92180.25;;;16.29;100.00
7660;BME280;3872;47.902;8.162;2023-05-08T03:12:42;92176.66;;;16.04;100.00
7660;BME280;3872;47.902;8.162;2023-05-08T03:15:17;92181.41;;;16.49;100.00
7660;BME280;3872;47.902;8.162;2023-05-08T03:17:45;92174.31;;;16.32;100.00
7660;BME280;3872;47.902;8.162;2023-05-08T03:20:15;92181.00;;;16.09;100.00
7660;BME280;3872;47.902;8.162;2023-05-08T03:22:44;92173.81;;;16.38;100.00
7660;BME280;3872;47.902;8.162;2023-05-08T03:25:16;92173.53;;;16.31;100.00
7660;BME280;3872;47.902;8.162;2023-05-08T03:27:44;92161.81;;;16.32;100.00
7660;BME280;3872;47.902;8.162;2023-05-08T03:30:11;92161.34;;;16.30;100.00
7660;BME280;3872;47.902;8.162;2023-05-08T03:32:41;92163.38;;;16.04;100.00
7660;BME280;3872;47.902;8.162;2023-05-08T03:35:09;92167.94;;;15.95;100.00
7660;BME280;3872;47.902;8.162;2023-05-08T03:37:36;92167.09;;;16.41;100.00
7660;BME280;3872;47.902;8.162;2023-05-08T03:40:05;92165.91;;;16.51;100.00
7660;BME280;3872;47.902;8.162;2023-05-08T03:42:34;92165.59;;;16.61;100.00
7660;BME280;3872;47.902;8.162;2023-05-08T03:45:03;92161.84;;;16.62;100.00
7660;BME280;3872;47.902;8.162;2023-05-08T03:47:32;92165.59;;;16.61;100.00
7660;BME280;3872;47.902;8.162;2023-05-08T03:50:01;92167.84;;;16.71;100.00
7660;BME280;3872;47.902;8.162;2023-05-08T03:52:28;92167.72;;;16.67;100.00
7660;BME280;3872;47.902;8.162;2023-05-08T03:54:55;92175.38;;;16.39;100.00
7660;BME280;3872;47.902;8.162;2023-05-08T03:57:26;92172.13;;;16.34;100.00
7660;BME280;3872;47.902;8.162;2023-05-08T04:00:00;92168.22;;;16.31;100.00
7660;BME280;3872;47.902;8.162;2023-05-08T04:02:44;92174.16;;;15.99;100.00
7660;BME280;3872;47.902;8.162;2023-05-08T04:05:18;92177.34;;;16.22;100.00
7660;BME280;3872;47.902;8.162;2023-05-08T04:07:51;92189.03;;;16.50;100.00
7660;BME280;3872;47.902;8.162;2023-05-08T04:10:23;92181.88;;;16.21;100.00
7660;BME280;3872;47.902;8.162;2023-05-08T04:12:56;92190.72;;;15.96;100.00
7660;BME280;3872;47.902;8.162;2023-05-08T04:15:30;92187.59;;;15.56;100.00
7660;BME280;3872;47.902;8.162;2023-05-08T04:18:03;92195.72;;;15.25;100.00
7660;BME280;3872;47.902;8.162;2023-05-08T04:20:32;92190.84;;;15.99;100.00
7660;BME280;3872;47.902;8.162;2023-05-08T04:23:00;92185.28;;;16.22;100.00
7660;BME280;3872;47.902;8.162;2023-05-08T04:25:28;92195.44;;;15.90;100.00
7660;BME280;3872;47.902;8.162;2023-05-08T04:27:57;92192.19;;;16.14;100.00
7660;BME280;3872;47.902;8.162;2023-05-08T04:30:24;92193.59;;;15.82;100.00
7660;BME280;3872;47.902;8.162;2023-05-08T04:32:53;92194.94;;;15.97;100.00
7660;BME280;3872;47.902;8.162;2023-05-08T04:35:20;92196.59;;;16.10;100.00
7660;BME280;3872;47.902;8.162;2023-05-08T04:37:47;92200.91;;;15.85;100.00
7660;BME280;3872;47.902;8.162;2023-05-08T04:40:15;92202.81;;;16.14;100.00
7660;BME280;3872;47.902;8.162;2023-05-08T04:42:41;92203.38;;;16.28;100.00
7660;BME280;3872;47.902;8.162;2023-05-08T04:45:12;92209.94;;;16.31;100.00
7660;BME280;3872;47.902;8.162;2023-05-08T04:47:39;92210.00;;;15.76;100.00
7660;BME280;3872;47.902;8.162;2023-05-08T04:50:07;92212.50;;;16.19;100.00
7660;BME280;3872;47.902;8.162;2023-05-08T04:52:34;92206.25;;;16.15;100.00
7660;BME280;3872;47.902;8.162;2023-05-08T04:55:01;92211.03;;;16.30;100.00
7660;BME280;3872;47.902;8.162;2023-05-08T04:57:30;92208.94;;;16.44;100.00
7660;BME280;3872;47.902;8.162;2023-05-08T04:59:56;92211.78;;;16.39;100.00
7660;BME280;3872;47.902;8.162;2023-05-08T05:02:24;92216.97;;;16.56;100.00
7660;BME280;3872;47.902;8.162;2023-05-08T05:04:51;92216.50;;;16.33;100.00
7660;BME280;3872;47.902;8.162;2023-05-08T05:07:19;92222.69;;;16.46;100.00
7660;BME280;3872;47.902;8.162;2023-05-08T05:09:46;92220.94;;;16.50;100.00
7660;BME280;3872;47.902;8.162;2023-05-08T05:12:12;92228.06;;;16.58;100.00
7660;BME280;3872;47.902;8.162;2023-05-08T05:14:39;92215.63;;;16.50;100.00
7660;BME280;3872;47.902;8.162;2023-05-08T05:17:05;92225.41;;;16.67;100.00
7660;BME280;3872;47.902;8.162;2023-05-08T05:19:32;92226.66;;;16.69;100.00
7660;BME280;3872;47.902;8.162;2023-05-08T05:21:59;92222.63;;;16.55;100.00
7660;BME280;3872;47.902;8.162;2023-05-08T05:24:27;92226.19;;;16.59;100.00
7660;BME280;3872;47.902;8.162;2023-05-08T05:26:56;92222.75;;;16.67;100.00
7660;BME280;3872;47.902;8.162;2023-05-08T05:29:22;92225.34;;;16.75;100.00
7660;BME280;3872;47.902;8.162;2023-05-08T05:31:49;92221.31;;;16.40;100.00
7660;BME280;3872;47.902;8.162;2023-05-08T05:34:16;92235.72;;;16.60;100.00
7660;BME280;3872;47.902;8.162;2023-05-08T05:36:42;92232.88;;;16.73;100.00
7660;BME280;3872;47.902;8.162;2023-05-08T05:39:09;92235.38;;;16.70;100.00
7660;BME280;3872;47.902;8.162;2023-05-08T05:41:38;92238.84;;;16.32;100.00
7660;BME280;3872;47.902;8.162;2023-05-08T05:44:06;92234.53;;;16.49;100.00
7660;BME280;3872;47.902;8.162;2023-05-08T05:46:33;92242.44;;;16.57;100.00
7660;BME280;3872;47.902;8.162;2023-05-08T05:49:01;92248.09;;;15.28;100.00
7660;BME280;3872;47.902;8.162;2023-05-08T05:51:28;92247.81;;;15.55;100.00
7660;BME280;3872;47.902;8.162;2023-05-08T05:53:55;92239.59;;;16.71;100.00
7660;BME280;3872;47.902;8.162;2023-05-08T05:56:23;92239.34;;;16.84;100.00
7660;BME280;3872;47.902;8.162;2023-05-08T05:58:51;92232.28;;;16.30;100.00
7660;BME280;3872;47.902;8.162;2023-05-08T06:01:17;92236.38;;;17.07;100.00
7660;BME280;3872;47.902;8.162;2023-05-08T06:03:44;92241.13;;;17.22;100.00
7660;BME280;3872;47.902;8.162;2023-05-08T06:06:11;92236.38;;;17.07;100.00
7660;BME280;3872;47.902;8.162;2023-05-08T06:08:38;92237.81;;;17.25;100.00
7660;BME280;3872;47.902;8.162;2023-05-08T06:11:04;92244.34;;;17.48;100.00
7660;BME280;3872;47.902;8.162;2023-05-08T06:13:31;92231.00;;;17.15;100.00
7660;BME280;3872;47.902;8.162;2023-05-08T06:15:59;92243.69;;;17.51;100.00
7660;BME280;3872;47.902;8.162;2023-05-08T06:18:25;92235.06;;;17.54;100.00
7660;BME280;3872;47.902;8.162;2023-05-08T06:20:55;92240.09;;;17.89;100.00
7660;BME280;3872;47.902;8.162;2023-05-08T06:23:22;92240.56;;;17.49;100.00
7660;BME280;3872;47.902;8.162;2023-05-08T06:25:49;92239.19;;;16.90;100.00
7660;BME280;3872;47.902;8.162;2023-05-08T06:28:16;92244.72;;;17.59;100.00
7660;BME280;3872;47.902;8.162;2023-05-08T06:30:43;92240.63;;;17.82;100.00
7660;BME280;3872;47.902;8.162;2023-05-08T06:33:11;92246.91;;;17.78;100.00
7660;BME280;3872;47.902;8.162;2023-05-08T06:35:37;92239.88;;;17.94;100.00
7660;BME280;3872;47.902;8.162;2023-05-08T06:38:04;92242.03;;;18.25;100.00
7660;BME280;3872;47.902;8.162;2023-05-08T06:40:30;92239.84;;;18.51;100.00
7660;BME280;3872;47.902;8.162;2023-05-08T06:42:57;92243.94;;;18.49;100.00
7660;BME280;3872;47.902;8.162;2023-05-08T06:45:23;92241.03;;;16.60;100.00
7660;BME280;3872;47.902;8.162;2023-05-08T06:47:50;92246.63;;;17.38;100.00
7660;BME280;3872;47.902;8.162;2023-05-08T06:50:18;92250.59;;;16.61;100.00
7660;BME280;3872;47.902;8.162;2023-05-08T06:52:44;92244.94;;;17.75;100.00
7660;BME280;3872;47.902;8.162;2023-05-08T06:55:11;92245.03;;;18.35;100.00
7660;BME280;3872;47.902;8.162;2023-05-08T06:57:37;92239.50;;;18.77;100.00
7660;BME280;3872;47.902;8.162;2023-05-08T07:00:05;92234.63;;;18.79;100.00
7660;BME280;3872;47.902;8.162;2023-05-08T07:02:31;92239.03;;;18.99;100.00
7660;BME280;3872;47.902;8.162;2023-05-08T07:04:58;92235.69;;;19.14;100.00
7660;BME280;3872;47.902;8.162;2023-05-08T07:07:26;92244.91;;;19.05;100.00
7660;BME280;3872;47.902;8.162;2023-05-08T07:09:52;92240.63;;;18.64;100.00
7660;BME280;3872;47.902;8.162;2023-05-08T07:12:19;92238.88;;;18.68;100.00
7660;BME280;3872;47.902;8.162;2023-05-08T07:14:45;92244.28;;;18.47;100.00
7660;BME280;3872;47.902;8.162;2023-05-08T07:17:12;92241.69;;;19.11;100.00
7660;BME280;3872;47.902;8.162;2023-05-08T07:19:38;92241.88;;;19.31;100.00
7660;BME280;3872;47.902;8.162;2023-05-08T07:22:05;92238.34;;;19.82;100.00
7660;BME280;3872;47.902;8.162;2023-05-08T07:24:33;92244.31;;;19.36;100.00
7660;BME280;3872;47.902;8.162;2023-05-08T07:27:00;92242.19;;;19.81;100.00
7660;BME280;3872;47.902;8.162;2023-05-08T07:29:26;92239.72;;;19.08;100.00
7660;BME280;3872;47.902;8.162;2023-05-08T07:31:53;92241.81;;;19.55;100.00
7660;BME280;3872;47.902;8.162;2023-05-08T07:34:19;92257.03;;;18.42;100.00
7660;BME280;3872;47.902;8.162;2023-05-08T07:36:46;92246.03;;;20.27;100.00
7660;BME280;3872;47.902;8.162;2023-05-08T07:39:13;92249.22;;;19.74;100.00
7660;BME280;3872;47.902;8.162;2023-05-08T07:41:41;92254.31;;;19.27;100.00
7660;BME280;3872;47.902;8.162;2023-05-08T07:44:09;92257.47;;;17.74;100.00
7660;BME280;3872;47.902;8.162;2023-05-08T07:46:36;92249.47;;;16.91;100.00
7660;BME280;3872;47.902;8.162;2023-05-08T07:49:02;92258.19;;;16.71;100.00
7660;BME280;3872;47.902;8.162;2023-05-08T07:51:29;92261.31;;;18.10;100.00
7660;BME280;3872;47.902;8.162;2023-05-08T07:53:55;92261.41;;;17.27;100.00
7660;BME280;3872;47.902;8.162;2023-05-08T07:56:22;92262.06;;;17.23;100.00
7660;BME280;3872;47.902;8.162;2023-05-08T07:58:50;92264.09;;;17.47;100.00
7660;BME280;3872;47.902;8.162;2023-05-08T08:01:17;92265.13;;;17.34;100.00
7660;BME280;3872;47.902;8.162;2023-05-08T08:03:44;92268.28;;;18.02;100.00
7660;BME280;3872;47.902;8.162;2023-05-08T08:06:10;92269.00;;;18.11;100.00
7660;BME280;3872;47.902;8.162;2023-05-08T08:08:37;92268.41;;;18.63;100.00
7660;BME280;3872;47.902;8.162;2023-05-08T08:11:04;92273.31;;;18.04;100.00
7660;BME280;3872;47.902;8.162;2023-05-08T08:13:30;92267.13;;;17.37;100.00
7660;BME280;3872;47.902;8.162;2023-05-08T08:16:00;92271.69;;;17.90;100.00
7660;BME280;3872;47.902;8.162;2023-05-08T08:18:28;92273.66;;;16.98;100.00
7660;BME280;3872;47.902;8.162;2023-05-08T08:20:55;92276.63;;;18.13;100.00
7660;BME280;3872;47.902;8.162;2023-05-08T08:23:21;92282.88;;;17.84;100.00
7660;BME280;3872;47.902;8.162;2023-05-08T08:25:48;92269.91;;;17.20;100.00
7660;BME280;3872;47.902;8.162;2023-05-08T08:28:14;92277.38;;;17.89;100.00
7660;BME280;3872;47.902;8.162;2023-05-08T08:30:42;92271.88;;;17.73;100.00
7660;BME280;3872;47.902;8.162;2023-05-08T08:33:10;92259.59;;;18.26;100.00
7660;BME280;3872;47.902;8.162;2023-05-08T08:35:36;92270.97;;;18.02;100.00
7660;BME280;3872;47.902;8.162;2023-05-08T08:38:03;92276.44;;;17.85;100.00
7660;BME280;3872;47.902;8.162;2023-05-08T08:40:29;92278.41;;;17.34;100.00
7660;BME280;3872;47.902;8.162;2023-05-08T08:42:56;92273.34;;;17.41;100.00
7660;BME280;3872;47.902;8.162;2023-05-08T08:45:22;92271.19;;;16.93;100.00
7660;BME280;3872;47.902;8.162;2023-05-08T08:47:51;92271.41;;;17.30;100.00
7660;BME280;3872;47.902;8.162;2023-05-08T08:50:19;92267.81;;;16.55;100.00
7660;BME280;3872;47.902;8.162;2023-05-08T08:52:54;92265.84;;;17.97;100.00
7660;BME280;3872;47.902;8.162;2023-05-08T08:55:21;92259.47;;;18.22;100.00
7660;BME280;3872;47.902;8.162;2023-05-08T08:58:04;92264.94;;;18.50;100.00
7660;BME280;3872;47.902;8.162;2023-05-08T09:00:35;92262.16;;;17.89;100.00
7660;BME280;3872;47.902;8.162;2023-05-08T09:03:04;92269.59;;;17.63;100.00
7660;BME280;3872;47.902;8.162;2023-05-08T09:05:32;92265.53;;;17.24;100.00
7660;BME280;3872;47.902;8.162;2023-05-08T09:08:00;92270.25;;;17.93;100.00
7660;BME280;3872;47.902;8.162;2023-05-08T09:10:26;92264.94;;;17.93;100.00
7660;BME280;3872;47.902;8.162;2023-05-08T09:12:53;92258.97;;;19.42;100.00
7660;BME280;3872;47.902;8.162;2023-05-08T09:15:19;92252.22;;;19.32;100.00
7660;BME280;3872;47.902;8.162;2023-05-08T09:17:46;92243.75;;;20.57;100.00
7660;BME280;3872;47.902;8.162;2023-05-08T09:20:13;92242.81;;;21.16;100.00
7660;BME280;3872;47.902;8.162;2023-05-08T09:22:42;92252.47;;;21.21;100.00
7660;BME280;3872;47.902;8.162;2023-05-08T09:25:09;92250.19;;;22.38;100.00
7660;BME280;3872;47.902;8.162;2023-05-08T09:27:36;92249.44;;;22.83;77.25
7660;BME280;3872;47.902;8.162;2023-05-08T09:30:04;92247.50;;;22.80;81.59
7660;BME280;3872;47.902;8.162;2023-05-08T09:32:32;92253.00;;;22.03;93.55
7660;BME280;3872;47.902;8.162;2023-05-08T09:34:59;92257.63;;;19.76;100.00
7660;BME280;3872;47.902;8.162;2023-05-08T09:37:26;92252.09;;;19.29;100.00
7660;BME280;3872;47.902;8.162;2023-05-08T09:40:11;92270.34;;;18.42;100.00
7660;BME280;3872;47.902;8.162;2023-05-08T09:42:38;92269.31;;;17.77;100.00
7660;BME280;3872;47.902;8.162;2023-05-08T09:45:06;92264.19;;;18.05;100.00
7660;BME280;3872;47.902;8.162;2023-05-08T09:47:34;92264.06;;;18.70;100.00
7660;BME280;3872;47.902;8.162;2023-05-08T09:50:03;92265.06;;;17.96;100.00
7660;BME280;3872;47.902;8.162;2023-05-08T09:52:31;92267.25;;;18.39;100.00
7660;BME280;3872;47.902;8.162;2023-05-08T09:55:00;92260.44;;;19.27;100.00
7660;BME280;3872;47.902;8.162;2023-05-08T09:57:28;92269.19;;;18.63;100.00
7660;BME280;3872;47.902;8.162;2023-05-08T10:00:00;92271.50;;;18.65;100.00
7660;BME280;3872;47.902;8.162;2023-05-08T10:02:32;92270.63;;;18.04;100.00
7660;BME280;3872;47.902;8.162;2023-05-08T10:04:59;92272.94;;;19.11;100.00
7660;BME280;3872;47.902;8.162;2023-05-08T10:07:27;92269.41;;;18.83;100.00
7660;BME280;3872;47.902;8.162;2023-05-08T10:09:59;92273.38;;;19.25;100.00
7660;BME280;3872;47.902;8.162;2023-05-08T10:12:27;92279.91;;;18.55;100.00
7660;BME280;3872;47.902;8.162;2023-05-08T10:14:54;92286.41;;;18.78;100.00
7660;BME280;3872;47.902;8.162;2023-05-08T10:17:25;92293.81;;;18.03;100.00
7660;BME280;3872;47.902;8.162;2023-05-08T10:19:57;92290.31;;;17.90;100.00
7660;BME280;3872;47.902;8.162;2023-05-08T10:22:25;92281.78;;;17.43;100.00
7660;BME280;3872;47.902;8.162;2023-05-08T10:24:55;92279.59;;;17.99;100.00
7660;BME280;3872;47.902;8.162;2023-05-08T10:27:31;92287.91;;;17.65;100.00
7660;BME280;3872;47.902;8.162;2023-05-08T10:30:01;92282.53;;;18.18;100.00
7660;BME280;3872;47.902;8.162;2023-05-08T10:32:32;92286.50;;;17.67;100.00
7660;BME280;3872;47.902;8.162;2023-05-08T10:35:02;92278.25;;;17.39;100.00
7660;BME280;3872;47.902;8.162;2023-05-08T10:37:29;92277.78;;;18.36;100.00
7660;BME280;3872;47.902;8.162;2023-05-08T10:39:56;92272.53;;;19.49;100.00
7660;BME280;3872;47.902;8.162;2023-05-08T10:42:26;92273.53;;;18.11;100.00
7660;BME280;3872;47.902;8.162;2023-05-08T10:44:53;92270.72;;;18.40;100.00
7660;BME280;3872;47.902;8.162;2023-05-08T10:47:25;92265.28;;;18.97;100.00
7660;BME280;3872;47.902;8.162;2023-05-08T10:49:59;92265.91;;;18.33;100.00
7660;BME280;3872;47.902;8.162;2023-05-08T10:52:33;92264.63;;;18.88;100.00
7660;BME280;3872;47.902;8.162;2023-05-08T10:55:18;92269.97;;;17.74;100.00
7660;BME280;3872;47.902;8.162;2023-05-08T10:58:03;92272.91;;;18.38;100.00
7660;BME280;3872;47.902;8.162;2023-05-08T11:00:31;92259.19;;;19.77;100.00
7660;BME280;3872;47.902;8.162;2023-05-08T11:03:04;92258.84;;;20.65;100.00
7660;BME280;3872;47.902;8.162;2023-05-08T11:05:44;92257.97;;;20.18;100.00
7660;BME280;3872;47.902;8.162;2023-05-08T11:08:14;92253.28;;;19.83;100.00
7660;BME280;3872;47.902;8.162;2023-05-08T11:10:42;92261.78;;;19.21;100.00
7660;BME280;3872;47.902;8.162;2023-05-08T11:13:11;92253.97;;;18.88;100.00
7660;BME280;3872;47.902;8.162;2023-05-08T11:15:39;92261.16;;;19.64;100.00
7660;BME280;3872;47.902;8.162;2023-05-08T11:18:07;92257.63;;;18.96;100.00
7660;BME280;3872;47.902;8.162;2023-05-08T11:20:39;92253.91;;;19.92;100.00
7660;BME280;3872;47.902;8.162;2023-05-08T11:23:22;92257.03;;;18.29;100.00
7660;BME280;3872;47.902;8.162;2023-05-08T11:25:57;92260.06;;;18.64;100.00
7660;BME280;3872;47.902;8.162;2023-05-08T11:28:26;92247.00;;;20.35;100.00
7660;BME280;3872;47.902;8.162;2023-05-08T11:30:53;92245.19;;;18.88;100.00
7660;BME280;3872;47.902;8.162;2023-05-08T11:33:21;92238.94;;;18.84;100.00
7660;BME280;3872;47.902;8.162;2023-05-08T11:35:50;92254.75;;;18.64;100.00
7660;BME280;3872;47.902;8.162;2023-05-08T11:38:25;92247.59;;;19.17;100.00
7660;BME280;3872;47.902;8.162;2023-05-08T11:40:57;92250.53;;;19.28;100.00
7660;BME280;3872;47.902;8.162;2023-05-08T11:43:53;92260.13;;;17.33;100.00
7660;BME280;3872;47.902;8.162;2023-05-08T11:46:34;92255.19;;;18.78;100.00
7660;BME280;3872;47.902;8.162;2023-05-08T11:49:01;92250.00;;;19.22;100.00
7660;BME280;3872;47.902;8.162;2023-05-08T11:51:29;92256.06;;;18.46;100.00
7660;BME280;3872;47.902;8.162;2023-05-08T11:53:57;92259.16;;;18.85;100.00
7660;BME280;3872;47.902;8.162;2023-05-08T11:56:24;92264.81;;;18.47;100.00
7660;BME280;3872;47.902;8.162;2023-05-08T11:59:02;92261.09;;;20.20;100.00
7660;BME280;3872;47.902;8.162;2023-05-08T12:01:30;92264.38;;;19.17;100.00
7660;BME280;3872;47.902;8.162;2023-05-08T12:04:01;92255.50;;;19.41;100.00
7660;BME280;3872;47.902;8.162;2023-05-08T12:06:28;92256.19;;;19.38;100.00
7660;BME280;3872;47.902;8.162;2023-05-08T12:08:56;92250.59;;;20.27;100.00
7660;BME280;3872;47.902;8.162;2023-05-08T12:11:22;92245.53;;;20.85;96.62
7660;BME280;3872;47.902;8.162;2023-05-08T12:13:50;92251.31;;;21.76;82.97
7660;BME280;3872;47.902;8.162;2023-05-08T12:16:18;92245.31;;;21.63;85.28
7660;BME280;3872;47.902;8.162;2023-05-08T12:18:48;92236.50;;;21.43;83.71
7660;BME280;3872;47.902;8.162;2023-05-08T12:21:14;92243.72;;;20.73;95.99
7660;BME280;3872;47.902;8.162;2023-05-08T12:23:41;92242.03;;;22.08;77.45
7660;BME280;3872;47.902;8.162;2023-05-08T12:26:08;92241.38;;;22.15;75.54
7660;BME280;3872;47.902;8.162;2023-05-08T12:28:37;92248.22;;;20.69;88.48
7660;BME280;3872;47.902;8.162;2023-05-08T12:31:04;92249.66;;;22.29;75.11
7660;BME280;3872;47.902;8.162;2023-05-08T12:33:33;92243.56;;;22.32;70.79
7660;BME280;3872;47.902;8.162;2023-05-08T12:36:00;92247.28;;;21.85;74.45
7660;BME280;3872;47.902;8.162;2023-05-08T12:38:27;92248.28;;;21.97;72.01
7660;BME280;3872;47.902;8.162;2023-05-08T12:40:54;92246.94;;;22.06;75.05
7660;BME280;3872;47.902;8.162;2023-05-08T12:43:30;92247.22;;;21.08;84.59
7660;BME280;3872;47.902;8.162;2023-05-08T12:45:56;92246.50;;;21.27;80.31
7660;BME280;3872;47.902;8.162;2023-05-08T12:48:23;92244.53;;;21.08;81.82
7660;BME280;3872;47.902;8.162;2023-05-08T12:50:51;92246.72;;;21.76;75.14
7660;BME280;3872;47.902;8.162;2023-05-08T12:53:18;92248.81;;;22.48;72.23
7660;BME280;3872;47.902;8.162;2023-05-08T12:55:50;92244.47;;;21.40;80.17
7660;BME280;3872;47.902;8.162;2023-05-08T12:58:17;92239.78;;;22.56;65.77
7660;BME280;3872;47.902;8.162;2023-05-08T13:00:46;92256.03;;;21.44;75.64
7660;BME280;3872;47.902;8.162;2023-05-08T13:03:20;92254.94;;;22.25;70.95
7660;BME280;3872;47.902;8.162;2023-05-08T13:05:48;92246.63;;;22.99;67.93
7660;BME280;3872;47.902;8.162;2023-05-08T13:08:15;92242.09;;;22.35;71.56
7660;BME280;3872;47.902;8.162;2023-05-08T13:10:47;92243.50;;;23.23;66.78
7660;BME280;3872;47.902;8.162;2023-05-08T13:13:15;92243.38;;;21.25;76.66
7660;BME280;3872;47.902;8.162;2023-05-08T13:15:42;92244.97;;;21.65;86.47
7660;BME280;3872;47.902;8.162;2023-05-08T13:18:08;92245.19;;;22.14;76.40
7660;BME280;3872;47.902;8.162;2023-05-08T13:20:35;92243.47;;;21.29;79.43
7660;BME280;3872;47.902;8.162;2023-05-08T13:23:02;92242.41;;;22.10;73.30
7660;BME280;3872;47.902;8.162;2023-05-08T13:25:30;92226.47;;;22.63;71.69
7660;BME280;3872;47.902;8.162;2023-05-08T13:27:57;92240.16;;;21.93;74.20